sensor_id;sensor_type;location;lat;lon;timestamp;pressure;altitude;pressure_sealevel;temperature;humidity
39773;BME280;25451;51.960;6.250;2023-01-30T00:01:32;101569.91;;;5.57;75.04
39773;BME280;25451;51.960;6.250;2023-01-30T00:03:58;101543.47;;;5.50;75.10
39773;BME280;25451;51.960;6.250;2023-01-30T00:06:24;101554.97;;;5.60;75.13
39773;BME280;25451;51.960;6.250;2023-01-30T00:08:49;101546.03;;;5.51;75.27
39773;BME280;25451;51.960;6.250;2023-01-30T00:11:16;101546.78;;;5.60;75.15
39773;BME280;25451;51.960;6.250;2023-01-30T00:13:42;101546.78;;;5.60;75.41
39773;BME280;25451;51.960;6.250;2023-01-30T00:16:08;101533.91;;;5.60;75.27
39773;BME280;25451;51.960;6.250;2023-01-30T00:18:34;101529.66;;;5.58;75.07
39773;BME280;25451;51.960;6.250;2023-01-30T00:21:01;101539.00;;;5.63;75.56
39773;BME280;25451;51.960;6.250;2023-01-30T00:23:28;101535.28;;;5.71;75.49
39773;BME280;25451;51.960;6.250;2023-01-30T00:25:54;101538.59;;;5.66;75.60
39773;BME280;25451;51.960;6.250;2023-01-30T00:28:20;101527.47;;;5.68;75.38
39773;BME280;25451;51.960;6.250;2023-01-30T00:30:50;101535.72;;;5.74;75.52
39773;BME280;25451;51.960;6.250;2023-01-30T00:33:17;101531.53;;;5.78;75.35
39773;BME280;25451;51.960;6.250;2023-01-30T00:35:47;101521.25;;;5.80;75.81
39773;BME280;25451;51.960;6.250;2023-01-30T00:38:13;101513.22;;;5.79;75.50
39773;BME280;25451;51.960;6.250;2023-01-30T00:40:38;101484.31;;;5.70;75.32
39773;BME280;25451;51.960;6.250;2023-01-30T00:43:04;101489.88;;;5.83;75.36
39773;BME280;25451;51.960;6.250;2023-01-30T00:45:48;101494.16;;;5.85;75.27
39773;BME280;25451;51.960;6.250;2023-01-30T00:48:33;101493.50;;;5.83;75.67
39773;BME280;25451;51.960;6.250;2023-01-30T00:50:58;101500.06;;;5.89;75.38
39773;BME280;25451;51.960;6.250;2023-01-30T00:53:24;101486.28;;;5.82;75.46
39773;BME280;25451;51.960;6.250;2023-01-30T00:55:50;101491.22;;;5.87;75.67
39773;BME280;25451;51.960;6.250;2023-01-30T00:58:15;101463.16;;;5.85;75.83
39773;BME280;25451;51.960;6.250;2023-01-30T01:00:41;101457.09;;;5.90;75.48
39773;BME280;25451;51.960;6.250;2023-01-30T01:03:06;101466.19;;;5.97;75.93
39773;BME280;25451;51.960;6.250;2023-01-30T01:05:32;101457.16;;;5.96;75.42
39773;BME280;25451;51.960;6.250;2023-01-30T01:07:57;101431.34;;;5.84;75.72
39773;BME280;25451;51.960;6.250;2023-01-30T01:10:23;101449.16;;;6.01;75.53
39773;BME280;25451;51.960;6.250;2023-01-30T01:12:49;101447.94;;;6.04;75.99
39773;BME280;25451;51.960;6.250;2023-01-30T01:15:16;101436.13;;;6.03;75.82
39773;BME280;25451;51.960;6.250;2023-01-30T01:17:42;101439.50;;;6.05;75.68
39773;BME280;25451;51.960;6.250;2023-01-30T01:20:08;101447.53;;;6.07;75.79
39773;BME280;25451;51.960;6.250;2023-01-30T01:22:33;101442.06;;;6.07;75.91
39773;BME280;25451;51.960;6.250;2023-01-30T01:24:59;101440.78;;;6.09;76.06
39773;BME280;25451;51.960;6.250;2023-01-30T01:27:24;101449.72;;;6.18;75.98
39773;BME280;25451;51.960;6.250;2023-01-30T01:29:50;101428.84;;;6.17;75.95
39773;BME280;25451;51.960;6.250;2023-01-30T01:32:15;101417.88;;;6.17;76.06
39773;BME280;25451;51.960;6.250;2023-01-30T01:34:40;101413.47;;;6.22;76.16
39773;BME280;25451;51.960;6.250;2023-01-30T01:37:06;101412.41;;;6.23;76.00
39773;BME280;25451;51.960;6.250;2023-01-30T01:39:31;101418.59;;;6.32;76.11
39773;BME280;25451;51.960;6.250;2023-01-30T01:42:16;101410.78;;;6.35;75.90
39773;BME280;25451;51.960;6.250;2023-01-30T01:47:27;101420.94;;;6.41;76.19
39773;BME280;25451;51.960;6.250;2023-01-30T01:49:52;101392.06;;;6.39;75.86
39773;BME280;25451;51.960;6.250;2023-01-30T01:52:18;101397.16;;;6.48;76.20
39773;BME280;25451;51.960;6.250;2023-01-30T01:54:56;101398.44;;;6.52;76.69
39773;BME280;25451;51.960;6.250;2023-01-30T01:57:26;101385.59;;;6.53;76.37
39773;BME280;25451;51.960;6.250;2023-01-30T02:00:20;101379.03;;;6.54;76.25
39773;BME280;25451;51.960;6.250;2023-01-30T02:02:53;101381.59;;;6.55;76.30
39773;BME280;25451;51.960;6.250;2023-01-30T02:05:20;101378.03;;;6.61;76.70
39773;BME280;25451;51.960;6.250;2023-01-30T02:07:51;101376.13;;;6.62;76.41
39773;BME280;25451;51.960;6.250;2023-01-30T02:10:25;101379.53;;;6.70;76.31
39773;BME280;25451;51.960;6.250;2023-01-30T02:12:53;101368.56;;;6.70;76.73
39773;BME280;25451;51.960;6.250;2023-01-30T02:15:19;101363.06;;;6.70;76.58
39773;BME280;25451;51.960;6.250;2023-01-30T02:17:44;101365.19;;;6.75;76.77
39773;BME280;25451;51.960;6.250;2023-01-30T02:20:26;101377.44;;;6.79;76.52
39773;BME280;25451;51.960;6.250;2023-01-30T02:34:05;101359.53;;;6.90;77.31
39773;BME280;25451;51.960;6.250;2023-01-30T02:36:56;101356.38;;;6.93;77.30
39773;BME280;25451;51.960;6.250;2023-01-30T02:39:41;101360.81;;;6.94;76.84
39773;BME280;25451;51.960;6.250;2023-01-30T02:42:24;101362.31;;;6.96;76.65
39773;BME280;25451;51.960;6.250;2023-01-30T02:45:11;101338.84;;;6.87;76.78
39773;BME280;25451;51.960;6.250;2023-01-30T02:47:49;101340.75;;;6.93;76.90
39773;BME280;25451;51.960;6.250;2023-01-30T02:50:20;101326.19;;;6.93;77.21
39773;BME280;25451;51.960;6.250;2023-01-30T02:52:47;101337.78;;;6.95;77.47
39773;BME280;25451;51.960;6.250;2023-01-30T02:55:19;101310.78;;;6.92;77.75
39773;BME280;25451;51.960;6.250;2023-01-30T02:57:45;101319.22;;;6.97;77.35
39773;BME280;25451;51.960;6.250;2023-01-30T03:00:12;101303.59;;;6.97;77.13
39773;BME280;25451;51.960;6.250;2023-01-30T03:08:32;101315.63;;;7.03;77.37
39773;BME280;25451;51.960;6.250;2023-01-30T03:11:05;101315.88;;;7.08;77.40
39773;BME280;25451;51.960;6.250;2023-01-30T03:13:52;101316.50;;;7.10;77.20
39773;BME280;25451;51.960;6.250;2023-01-30T03:16:34;101311.41;;;7.07;78.12
39773;BME280;25451;51.960;6.250;2023-01-30T03:19:01;101319.25;;;7.10;77.59
39773;BME280;25451;51.960;6.250;2023-01-30T03:21:27;101321.34;;;7.08;77.72
39773;BME280;25451;51.960;6.250;2023-01-30T03:23:53;101315.44;;;7.11;77.94
39773;BME280;25451;51.960;6.250;2023-01-30T03:26:28;101301.50;;;7.06;77.70
39773;BME280;25451;51.960;6.250;2023-01-30T03:28:55;101292.19;;;7.07;78.05
39773;BME280;25451;51.960;6.250;2023-01-30T03:31:20;101285.88;;;7.13;78.29
39773;BME280;25451;51.960;6.250;2023-01-30T03:33:46;101289.28;;;7.08;77.96
39773;BME280;25451;51.960;6.250;2023-01-30T03:36:11;101274.06;;;7.06;78.13
39773;BME280;25451;51.960;6.250;2023-01-30T03:38:37;101279.13;;;7.09;78.03
39773;BME280;25451;51.960;6.250;2023-01-30T03:41:03;101281.22;;;7.13;78.50
39773;BME280;25451;51.960;6.250;2023-01-30T03:43:29;101287.16;;;7.10;78.11
39773;BME280;25451;51.960;6.250;2023-01-30T03:45:54;101284.84;;;7.14;78.40
39773;BME280;25451;51.960;6.250;2023-01-30T03:48:20;101293.69;;;7.16;78.31
39773;BME280;25451;51.960;6.250;2023-01-30T03:50:45;101276.59;;;7.14;78.90
39773;BME280;25451;51.960;6.250;2023-01-30T03:53:10;101285.88;;;7.19;78.73
39773;BME280;25451;51.960;6.250;2023-01-30T03:55:36;101283.13;;;7.19;78.38
39773;BME280;25451;51.960;6.250;2023-01-30T03:58:01;101279.97;;;7.16;78.29
39773;BME280;25451;51.960;6.250;2023-01-30T04:00:27;101279.75;;;7.17;78.68
39773;BME280;25451;51.960;6.250;2023-01-30T04:02:52;101285.25;;;7.24;78.00
39773;BME280;25451;51.960;6.250;2023-01-30T04:05:19;101290.31;;;7.27;78.46
39773;BME280;25451;51.960;6.250;2023-01-30T04:07:44;101301.09;;;7.28;78.33
39773;BME280;25451;51.960;6.250;2023-01-30T04:10:10;101271.09;;;7.20;78.23
39773;BME280;25451;51.960;6.250;2023-01-30T04:12:35;101290.31;;;7.27;78.48
39773;BME280;25451;51.960;6.250;2023-01-30T04:15:00;101290.13;;;7.28;78.72
39773;BME280;25451;51.960;6.250;2023-01-30T04:17:26;101296.00;;;7.32;78.86
39773;BME280;25451;51.960;6.250;2023-01-30T04:19:51;101296.00;;;7.32;78.71
39773;BME280;25451;51.960;6.250;2023-01-30T04:22:16;101300.47;;;7.33;78.65
39773;BME280;25451;51.960;6.250;2023-01-30T04:24:41;101296.44;;;7.29;78.48
39773;BME280;25451;51.960;6.250;2023-01-30T04:27:07;101299.81;;;7.37;79.05
39773;BME280;25451;51.960;6.250;2023-01-30T04:29:33;101284.63;;;7.35;78.79
39773;BME280;25451;51.960;6.250;2023-01-30T04:31:58;101274.69;;;7.34;78.86
39773;BME280;25451;51.960;6.250;2023-01-30T04:34:24;101275.75;;;7.33;78.74
39773;BME280;25451;51.960;6.250;2023-01-30T04:36:49;101277.00;;;7.37;78.89
39773;BME280;25451;51.960;6.250;2023-01-30T04:39:14;101292.41;;;7.44;78.55
39773;BME280;25451;51.960;6.250;2023-01-30T04:41:40;101289.44;;;7.46;78.99
39773;BME280;25451;51.960;6.250;2023-01-30T04:44:05;101274.91;;;7.39;79.13
39773;BME280;25451;51.960;6.250;2023-01-30T04:46:30;101277.84;;;7.44;79.25
39773;BME280;25451;51.960;6.250;2023-01-30T04:48:55;101278.69;;;7.51;79.04
39773;BME280;25451;51.960;6.250;2023-01-30T04:51:21;101282.06;;;7.53;78.89
39773;BME280;25451;51.960;6.250;2023-01-30T04:53:46;101263.47;;;7.48;79.07
39773;BME280;25451;51.960;6.250;2023-01-30T04:56:11;101257.13;;;7.41;79.05
39773;BME280;25451;51.960;6.250;2023-01-30T04:58:37;101266.22;;;7.55;79.01
39773;BME280;25451;51.960;6.250;2023-01-30T05:01:28;101281.84;;;7.61;79.03
39773;BME280;25451;51.960;6.250;2023-01-30T05:03:54;101253.97;;;7.51;78.88
39773;BME280;25451;51.960;6.250;2023-01-30T05:06:20;101281.38;;;7.64;79.00
39773;BME280;25451;51.960;6.250;2023-01-30T05:08:50;101271.66;;;7.62;79.06
39773;BME280;25451;51.960;6.250;2023-01-30T05:11:16;101263.00;;;7.65;79.07
39773;BME280;25451;51.960;6.250;2023-01-30T05:13:41;101270.63;;;7.63;78.98
39773;BME280;25451;51.960;6.250;2023-01-30T05:16:09;101278.88;;;7.63;79.42
39773;BME280;25451;51.960;6.250;2023-01-30T05:18:34;101282.25;;;7.65;79.58
39773;BME280;25451;51.960;6.250;2023-01-30T05:21:08;101284.97;;;7.71;79.20
39773;BME280;25451;51.960;6.250;2023-01-30T05:23:33;101294.91;;;7.72;79.07
39773;BME280;25451;51.960;6.250;2023-01-30T05:25:59;101277.78;;;7.70;79.19
39773;BME280;25451;51.960;6.250;2023-01-30T05:28:25;101272.06;;;7.72;79.31
39773;BME280;25451;51.960;6.250;2023-01-30T05:30:50;101266.56;;;7.72;79.25
39773;BME280;25451;51.960;6.250;2023-01-30T05:33:16;101279.25;;;7.73;79.27
39773;BME280;25451;51.960;6.250;2023-01-30T05:35:48;101265.13;;;7.69;79.43
39773;BME280;25451;51.960;6.250;2023-01-30T05:38:14;101273.13;;;7.77;79.20
39773;BME280;25451;51.960;6.250;2023-01-30T05:40:40;101266.56;;;7.78;79.21
39773;BME280;25451;51.960;6.250;2023-01-30T05:43:05;101253.06;;;7.70;79.48
39773;BME280;25451;51.960;6.250;2023-01-30T05:45:31;101277.34;;;7.80;79.27
39773;BME280;25451;51.960;6.250;2023-01-30T05:47:56;101267.22;;;7.74;79.73
39773;BME280;25451;51.960;6.250;2023-01-30T05:50:21;101271.44;;;7.76;79.88
39773;BME280;25451;51.960;6.250;2023-01-30T05:52:46;101278.00;;;7.82;79.59
39773;BME280;25451;51.960;6.250;2023-01-30T05:55:12;101268.69;;;7.76;80.07
39773;BME280;25451;51.960;6.250;2023-01-30T05:57:37;101268.06;;;7.74;79.82
39773;BME280;25451;51.960;6.250;2023-01-30T06:00:04;101295.09;;;7.84;79.58
39773;BME280;25451;51.960;6.250;2023-01-30T06:02:30;101282.00;;;7.79;80.08
39773;BME280;25451;51.960;6.250;2023-01-30T06:04:56;101271.88;;;7.80;80.06
39773;BME280;25451;51.960;6.250;2023-01-30T06:07:21;101275.63;;;7.85;79.98
39773;BME280;25451;51.960;6.250;2023-01-30T06:09:46;101263.81;;;7.78;79.61
39773;BME280;25451;51.960;6.250;2023-01-30T06:12:11;101266.78;;;7.77;79.44
39773;BME280;25451;51.960;6.250;2023-01-30T06:14:37;101281.78;;;7.81;79.64
39773;BME280;25451;51.960;6.250;2023-01-30T06:17:02;101273.94;;;7.84;80.03
39773;BME280;25451;51.960;6.250;2023-01-30T06:19:27;101287.06;;;7.82;79.73
39773;BME280;25451;51.960;6.250;2023-01-30T06:21:53;101287.72;;;7.78;79.87
39773;BME280;25451;51.960;6.250;2023-01-30T06:24:18;101312.84;;;7.81;79.67
39773;BME280;25451;51.960;6.250;2023-01-30T06:26:43;101288.16;;;7.62;79.73
39773;BME280;25451;51.960;6.250;2023-01-30T06:29:09;101322.59;;;7.77;79.58
39773;BME280;25451;51.960;6.250;2023-01-30T06:31:34;101312.88;;;7.68;79.92
39773;BME280;25451;51.960;6.250;2023-01-30T06:33:59;101331.25;;;7.74;79.62
39773;BME280;25451;51.960;6.250;2023-01-30T06:36:25;101330.63;;;7.72;79.91
39773;BME280;25451;51.960;6.250;2023-01-30T06:38:50;101328.31;;;7.69;80.17
39773;BME280;25451;51.960;6.250;2023-01-30T06:41:15;101311.19;;;7.61;79.60
39773;BME280;25451;51.960;6.250;2023-01-30T06:43:41;101322.19;;;7.67;79.85
39773;BME280;25451;51.960;6.250;2023-01-30T06:46:06;101319.22;;;7.62;80.13
39773;BME280;25451;51.960;6.250;2023-01-30T06:48:31;101321.97;;;7.62;79.90
39773;BME280;25451;51.960;6.250;2023-01-30T06:50:57;101321.78;;;7.57;79.57
39773;BME280;25451;51.960;6.250;2023-01-30T06:53:22;101333.19;;;7.61;80.13
39773;BME280;25451;51.960;6.250;2023-01-30T06:55:54;101317.78;;;7.53;79.51
39773;BME280;25451;51.960;6.250;2023-01-30T06:58:19;101329.38;;;7.48;80.21
39773;BME280;25451;51.960;6.250;2023-01-30T07:00:44;101330.25;;;7.49;79.38
39773;BME280;25451;51.960;6.250;2023-01-30T07:03:14;101338.25;;;7.50;79.94
39773;BME280;25451;51.960;6.250;2023-01-30T07:05:40;101339.53;;;7.48;79.76
39773;BME280;25451;51.960;6.250;2023-01-30T07:08:06;101348.84;;;7.47;79.96
39773;BME280;25451;51.960;6.250;2023-01-30T07:10:32;101336.59;;;7.43;79.75
39773;BME280;25451;51.960;6.250;2023-01-30T07:12:58;101339.97;;;7.45;79.85
39773;BME280;25451;51.960;6.250;2023-01-30T07:15:23;101334.06;;;7.35;80.06
39773;BME280;25451;51.960;6.250;2023-01-30T07:17:48;101339.72;;;7.33;80.06
39773;BME280;25451;51.960;6.250;2023-01-30T07:20:14;101350.53;;;7.35;79.60
39773;BME280;25451;51.960;6.250;2023-01-30T07:22:39;101365.72;;;7.31;79.64
39773;BME280;25451;51.960;6.250;2023-01-30T07:25:05;101380.91;;;7.33;79.72
39773;BME280;25451;51.960;6.250;2023-01-30T07:27:30;101373.53;;;7.27;79.71
39773;BME280;25451;51.960;6.250;2023-01-30T07:29:56;101371.41;;;7.29;79.62
39773;BME280;25451;51.960;6.250;2023-01-30T07:32:21;101358.97;;;7.20;79.66
39773;BME280;25451;51.960;6.250;2023-01-30T07:34:47;101353.25;;;7.22;79.68
39773;BME280;25451;51.960;6.250;2023-01-30T07:37:13;101365.28;;;7.21;79.24
39773;BME280;25451;51.960;6.250;2023-01-30T07:39:38;101365.06;;;7.16;79.25
39773;BME280;25451;51.960;6.250;2023-01-30T07:42:04;101366.09;;;7.15;79.61
39773;BME280;25451;51.960;6.250;2023-01-30T07:44:30;101382.16;;;7.11;79.62
39773;BME280;25451;51.960;6.250;2023-01-30T07:46:55;101347.94;;;7.01;79.12
39773;BME280;25451;51.960;6.250;2023-01-30T07:49:20;101373.91;;;7.05;79.18
39773;BME280;25451;51.960;6.250;2023-01-30T07:51:46;101381.72;;;7.01;79.23
39773;BME280;25451;51.960;6.250;2023-01-30T07:54:11;101373.06;;;6.98;79.56
39773;BME280;25451;51.960;6.250;2023-01-30T07:56:36;101370.09;;;6.99;79.47
39773;BME280;25451;51.960;6.250;2023-01-30T07:59:02;101366.31;;;6.94;79.45
39773;BME280;25451;51.960;6.250;2023-01-30T08:01:29;101374.09;;;6.97;79.65
39773;BME280;25451;51.960;6.250;2023-01-30T08:03:55;101384.25;;;6.96;79.82
39773;BME280;25451;51.960;6.250;2023-01-30T08:06:20;101376.63;;;6.92;79.37
39773;BME280;25451;51.960;6.250;2023-01-30T08:08:45;101380.41;;;6.91;79.04
39773;BME280;25451;51.960;6.250;2023-01-30T08:11:11;101382.78;;;6.94;79.22
39773;BME280;25451;51.960;6.250;2023-01-30T08:13:36;101384.66;;;6.93;79.39
39773;BME280;25451;51.960;6.250;2023-01-30T08:16:03;101392.88;;;6.93;79.30
39773;BME280;25451;51.960;6.250;2023-01-30T08:18:30;101394.78;;;6.93;79.19
39773;BME280;25451;51.960;6.250;2023-01-30T08:20:59;101390.13;;;6.87;79.15
39773;BME280;25451;51.960;6.250;2023-01-30T08:23:25;101400.50;;;6.91;78.76
39773;BME280;25451;51.960;6.250;2023-01-30T08:25:59;101415.69;;;6.94;79.45
39773;BME280;25451;51.960;6.250;2023-01-30T08:28:26;101410.22;;;6.94;79.25
39773;BME280;25451;51.960;6.250;2023-01-30T08:30:51;101415.06;;;6.92;78.73
39773;BME280;25451;51.960;6.250;2023-01-30T08:33:17;101412.97;;;6.94;78.92
39773;BME280;25451;51.960;6.250;2023-01-30T08:35:43;101418.44;;;6.94;78.55
39773;BME280;25451;51.960;6.250;2023-01-30T08:38:08;101410.41;;;6.99;79.03
39773;BME280;25451;51.960;6.250;2023-01-30T08:40:34;101403.69;;;7.01;78.61
39773;BME280;25451;51.960;6.250;2023-01-30T08:43:00;101402.81;;;7.01;78.51
39773;BME280;25451;51.960;6.250;2023-01-30T08:45:25;101411.94;;;7.08;78.96
39773;BME280;25451;51.960;6.250;2023-01-30T08:47:51;101410.03;;;7.08;78.54
39773;BME280;25451;51.960;6.250;2023-01-30T08:50:16;101429.06;;;7.16;78.25
39773;BME280;25451;51.960;6.250;2023-01-30T08:52:41;101423.13;;;7.19;78.18
39773;BME280;25451;51.960;6.250;2023-01-30T08:55:07;101444.69;;;7.29;78.24
39773;BME280;25451;51.960;6.250;2023-01-30T08:57:34;101437.94;;;7.31;77.64
39773;BME280;25451;51.960;6.250;2023-01-30T08:59:59;101441.34;;;7.40;77.94
39773;BME280;25451;51.960;6.250;2023-01-30T09:02:25;101448.31;;;7.42;78.07
39773;BME280;25451;51.960;6.250;2023-01-30T09:04:50;101446.84;;;7.46;77.83
39773;BME280;25451;51.960;6.250;2023-01-30T09:07:15;101465.03;;;7.54;78.02
39773;BME280;25451;51.960;6.250;2023-01-30T09:09:41;101447.69;;;7.53;77.54
39773;BME280;25451;51.960;6.250;2023-01-30T09:12:06;101484.69;;;7.71;77.53
39773;BME280;25451;51.960;6.250;2023-01-30T09:14:31;101473.72;;;7.77;77.41
39773;BME280;25451;51.960;6.250;2023-01-30T09:16:57;101463.16;;;7.87;77.55
39773;BME280;25451;51.960;6.250;2023-01-30T09:19:24;101468.84;;;7.92;77.28
39773;BME280;25451;51.960;6.250;2023-01-30T09:21:50;101475.19;;;7.99;76.86
39773;BME280;25451;51.960;6.250;2023-01-30T09:24:16;101469.25;;;8.02;76.82
39773;BME280;25451;51.960;6.250;2023-01-30T09:26:41;101451.09;;;8.01;77.05
39773;BME280;25451;51.960;6.250;2023-01-30T09:29:10;101458.72;;;8.06;76.96
39773;BME280;25451;51.960;6.250;2023-01-30T09:31:36;101456.16;;;8.04;77.37
39773;BME280;25451;51.960;6.250;2023-01-30T09:34:02;101466.72;;;8.07;77.32
39773;BME280;25451;51.960;6.250;2023-01-30T09:36:27;101459.53;;;8.06;77.41
39773;BME280;25451;51.960;6.250;2023-01-30T09:38:52;101462.50;;;8.11;77.46
39773;BME280;25451;51.960;6.250;2023-01-30T09:55:18;101470.34;;;8.01;76.92
39773;BME280;25451;51.960;6.250;2023-01-30T09:57:46;101479.00;;;8.05;76.98
39773;BME280;25451;51.960;6.250;2023-01-30T10:05:59;101488.09;;;8.05;76.68
39773;BME280;25451;51.960;6.250;2023-01-30T10:08:44;101481.53;;;8.06;76.98
39773;BME280;25451;51.960;6.250;2023-01-30T10:16:51;101489.38;;;8.09;76.77
39773;BME280;25451;51.960;6.250;2023-01-30T10:19:43;101505.00;;;8.15;76.43
39773;BME280;25451;51.960;6.250;2023-01-30T10:22:26;101497.41;;;8.17;76.56
39773;BME280;25451;51.960;6.250;2023-01-30T10:27:29;101493.38;;;8.20;76.03
39773;BME280;25451;51.960;6.250;2023-01-30T10:29:57;101475.41;;;8.17;76.13
39773;BME280;25451;51.960;6.250;2023-01-30T10:32:48;101499.09;;;8.31;76.23
39773;BME280;25451;51.960;6.250;2023-01-30T10:35:19;101493.38;;;8.33;75.88
39773;BME280;25451;51.960;6.250;2023-01-30T10:38:11;101509.88;;;8.33;75.88
39773;BME280;25451;51.960;6.250;2023-01-30T10:40:49;101510.31;;;8.30;75.85
39773;BME280;25451;51.960;6.250;2023-01-30T10:43:28;101513.72;;;8.32;75.71
39773;BME280;25451;51.960;6.250;2023-01-30T10:53:54;101505.69;;;8.30;75.44
39773;BME280;25451;51.960;6.250;2023-01-30T10:56:32;101488.97;;;8.25;75.66
39773;BME280;25451;51.960;6.250;2023-01-30T11:01:54;101505.22;;;8.33;75.33
39773;BME280;25451;51.960;6.250;2023-01-30T11:04:37;101505.88;;;8.35;75.47
39773;BME280;25451;51.960;6.250;2023-01-30T11:07:03;101515.81;;;8.37;75.80
39773;BME280;25451;51.960;6.250;2023-01-30T11:09:44;101500.81;;;8.32;75.67
39773;BME280;25451;51.960;6.250;2023-01-30T11:12:10;101519.41;;;8.37;75.27
39773;BME280;25451;51.960;6.250;2023-01-30T11:17:28;101518.75;;;8.42;75.12
39773;BME280;25451;51.960;6.250;2023-01-30T11:19:55;101520.25;;;8.44;75.11
39773;BME280;25451;51.960;6.250;2023-01-30T11:22:23;101511.16;;;8.44;74.88
39773;BME280;25451;51.960;6.250;2023-01-30T11:25:03;101519.81;;;8.47;74.90
39773;BME280;25451;51.960;6.250;2023-01-30T11:27:34;101511.16;;;8.44;75.03
39773;BME280;25451;51.960;6.250;2023-01-30T11:32:30;101528.91;;;8.48;74.84
39773;BME280;25451;51.960;6.250;2023-01-30T11:37:35;101540.75;;;8.55;74.71
39773;BME280;25451;51.960;6.250;2023-01-30T11:42:48;101530.16;;;8.58;74.68
39773;BME280;25451;51.960;6.250;2023-01-30T11:45:15;101523.81;;;8.58;74.07
39773;BME280;25451;51.960;6.250;2023-01-30T11:47:51;101532.28;;;8.63;74.54
39773;BME280;25451;51.960;6.250;2023-01-30T11:50:18;101526.34;;;8.66;73.96
39773;BME280;25451;51.960;6.250;2023-01-30T11:52:44;101530.34;;;8.70;73.98
39773;BME280;25451;51.960;6.250;2023-01-30T11:55:14;101537.34;;;8.72;74.20
39773;BME280;25451;51.960;6.250;2023-01-30T11:57:43;101526.97;;;8.74;74.22
39773;BME280;25451;51.960;6.250;2023-01-30T12:00:16;101542.84;;;8.79;73.88
39773;BME280;25451;51.960;6.250;2023-01-30T12:02:44;101524.19;;;8.81;73.79
39773;BME280;25451;51.960;6.250;2023-01-30T12:10:45;101528.00;;;8.80;73.25
39773;BME280;25451;51.960;6.250;2023-01-30T12:15:45;101529.69;;;8.81;73.35
39773;BME280;25451;51.960;6.250;2023-01-30T12:18:22;101528.00;;;8.80;73.34
39773;BME280;25451;51.960;6.250;2023-01-30T12:20:58;101538.34;;;8.84;72.97
39773;BME280;25451;51.960;6.250;2023-01-30T12:23:32;101537.72;;;8.89;72.96
39773;BME280;25451;51.960;6.250;2023-01-30T12:32:10;101557.63;;;8.91;72.81
39773;BME280;25451;51.960;6.250;2023-01-30T12:34:37;101507.28;;;8.71;72.95
39773;BME280;25451;51.960;6.250;2023-01-30T12:43:09;101564.63;;;8.87;72.79
39773;BME280;25451;51.960;6.250;2023-01-30T12:54:19;101556.78;;;8.84;72.02
39773;BME280;25451;51.960;6.250;2023-01-30T12:57:42;101576.25;;;8.89;71.98
39773;BME280;25451;51.960;6.250;2023-01-30T13:02:47;101574.38;;;8.83;72.04
39773;BME280;25451;51.960;6.250;2023-01-30T13:05:21;101579.00;;;8.89;71.95
39773;BME280;25451;51.960;6.250;2023-01-30T13:13:26;101596.56;;;8.88;72.04
39773;BME280;25451;51.960;6.250;2023-01-30T13:16:14;101590.25;;;8.87;71.81
39773;BME280;25451;51.960;6.250;2023-01-30T13:18:50;101598.28;;;8.89;71.43
39773;BME280;25451;51.960;6.250;2023-01-30T13:24:00;101595.75;;;8.87;71.42
39773;BME280;25451;51.960;6.250;2023-01-30T13:26:32;101598.91;;;8.84;71.76
39773;BME280;25451;51.960;6.250;2023-01-30T13:29:02;101586.03;;;8.72;71.60
39773;BME280;25451;51.960;6.250;2023-01-30T13:31:31;101615.66;;;8.89;71.54
39773;BME280;25451;51.960;6.250;2023-01-30T13:34:08;101628.56;;;8.89;71.44
39773;BME280;25451;51.960;6.250;2023-01-30T13:36:41;101617.97;;;8.86;71.68
39773;BME280;25451;51.960;6.250;2023-01-30T13:39:18;101633.00;;;8.90;71.38
39773;BME280;25451;51.960;6.250;2023-01-30T13:41:55;101630.91;;;8.85;71.30
39773;BME280;25451;51.960;6.250;2023-01-30T13:44:29;101637.06;;;8.87;71.46
39773;BME280;25451;51.960;6.250;2023-01-30T13:47:10;101630.06;;;8.85;71.22
39773;BME280;25451;51.960;6.250;2023-01-30T13:52:33;101632.19;;;8.83;71.14
39773;BME280;25451;51.960;6.250;2023-01-30T13:58:03;101642.78;;;8.79;71.03
39773;BME280;25451;51.960;6.250;2023-01-30T14:00:34;101660.56;;;8.83;71.23
39773;BME280;25451;51.960;6.250;2023-01-30T14:08:29;101671.56;;;8.83;70.74
39773;BME280;25451;51.960;6.250;2023-01-30T14:10:58;101680.66;;;8.84;70.69
39773;BME280;25451;51.960;6.250;2023-01-30T14:13:25;101666.25;;;8.82;70.63
39773;BME280;25451;51.960;6.250;2023-01-30T14:18:23;101680.66;;;8.84;70.80
39773;BME280;25451;51.960;6.250;2023-01-30T14:20:51;101679.59;;;8.85;70.80
39773;BME280;25451;51.960;6.250;2023-01-30T14:23:33;101679.59;;;8.78;70.78
39773;BME280;25451;51.960;6.250;2023-01-30T14:26:00;101685.09;;;8.78;70.74
39773;BME280;25451;51.960;6.250;2023-01-30T14:30:56;101694.41;;;8.84;70.79
39773;BME280;25451;51.960;6.250;2023-01-30T14:38:23;101695.28;;;8.84;70.26
39773;BME280;25451;51.960;6.250;2023-01-30T14:56:59;101764.72;;;8.86;70.29
39773;BME280;25451;51.960;6.250;2023-01-30T14:59:49;101766.22;;;8.82;70.48
39773;BME280;25451;51.960;6.250;2023-01-30T15:02:20;101770.84;;;8.82;70.49
39773;BME280;25451;51.960;6.250;2023-01-30T15:05:01;101782.94;;;8.81;70.19
39773;BME280;25451;51.960;6.250;2023-01-30T15:07:38;101779.56;;;8.79;70.44
39773;BME280;25451;51.960;6.250;2023-01-30T15:18:38;101792.44;;;8.72;70.03
39773;BME280;25451;51.960;6.250;2023-01-30T15:31:58;101819.75;;;8.67;69.90
39773;BME280;25451;51.960;6.250;2023-01-30T15:34:31;101827.38;;;8.65;69.86
39773;BME280;25451;51.960;6.250;2023-01-30T15:36:58;101837.31;;;8.66;69.75
39773;BME280;25451;51.960;6.250;2023-01-30T15:39:25;101838.38;;;8.65;69.98
39773;BME280;25451;51.960;6.250;2023-01-30T15:41:52;101842.59;;;8.61;70.14
39773;BME280;25451;51.960;6.250;2023-01-30T15:47:44;101849.78;;;8.62;70.02
39773;BME280;25451;51.960;6.250;2023-01-30T15:50:14;101856.16;;;8.62;69.94
39773;BME280;25451;51.960;6.250;2023-01-30T15:52:42;101865.66;;;8.60;69.95
39773;BME280;25451;51.960;6.250;2023-01-30T15:55:19;101873.09;;;8.59;69.96
39773;BME280;25451;51.960;6.250;2023-01-30T15:57:52;101870.09;;;8.54;69.79